Terminal Aerodrome Forecast
Issued by NWS

Home | Current Version | Previous Version | Text Only | Print | Product List | Glossary On
Versions: 1 2 3 4 5 6 7 8 9 10 11 12 13 14 15 16 17 18 19
000
FTUS45 KSLC 301800 AAA
TAFLGU
TAF AMD
KLGU 301800Z 3018/3118 22007KT 6SM -RA SCT030 BKN040
     FM302200 34011G18KT 6SM -RA SCT015 BKN040
     FM310900 35011KT P6SM VCSH OVC050=

USA.gov is the U.S. government's official web portal to all federal, state and local government web resources and services.